KABY/ABY METAR and TAF weather

Enter ICAO airport designator
Station Type Date Time Source
KABY METAR 2018/12/13 14:53 UTC NOAA

KABY 131453Z 09006KT 10SM CLR 09/04 A3023 RMK AO2 SLP236 T00940039 58001


Station Type Date Time Source
KABY Decoded METAR 2018/12/13 14:53 UTC NOAA

ALBANY SOUTHWEST GEORGIA, GA, United States (KABY) 31-32N 084-12W 58M
Dec 13, 2018 - 09:53 AM EST / 2018.12.13 1453 UTC
Wind: from the E (090 degrees) at 7 MPH (6 KT):0
Visibility: 10 mile(s):0
Sky conditions: clear
Temperature: 48.9 F (9.4 C)
Dew Point: 39.0 F (3.9 C)
Relative Humidity: 68%
Pressure (altimeter): 30.23 in. Hg (1023 hPa)
Pressure tendency: 0.00 inches (0.1 hPa) lower than three hours ago
ob: KABY 131453Z 09006KT 10SM CLR 09/04 A3023 RMK AO2 SLP236 T00940039 58001
cycle: 15

Station Type Date Time Source
KABY TAF 2018/12/13 12:33 UTC NOAA

TAF KABY 131130Z 1312/1412 00000KT P6SM OVC200
FM131400 11010KT P6SM SCT030 BKN050 OVC250
FM132100 12011G20KT 6SM -RA OVC050


Example: see airport list